createdAt,value
2018-06-20T00:01:29.032Z,2.27
2018-06-20T00:03:57.485Z,2.63
2018-06-20T00:06:25.972Z,2.33
2018-06-20T00:08:54.247Z,2.07
2018-06-20T00:11:24.518Z,2.60
2018-06-20T00:13:54.097Z,2.30
2018-06-20T00:16:22.577Z,2.77
2018-06-20T00:18:51.017Z,3.27
2018-06-20T00:21:19.440Z,2.53
2018-06-20T00:23:47.946Z,2.97
2018-06-20T00:26:16.430Z,3.03
2018-06-20T00:28:44.859Z,2.83
2018-06-20T00:31:13.330Z,2.67
2018-06-20T00:33:41.821Z,3.27
2018-06-20T00:36:10.300Z,3.13
2018-06-20T00:38:38.657Z,3.07
2018-06-20T00:41:06.904Z,2.97
2018-06-20T00:43:35.244Z,2.80
2018-06-20T00:46:03.826Z,2.63
2018-06-20T00:48:31.964Z,3.10
2018-06-20T00:51:00.361Z,3.57
2018-06-20T00:53:28.744Z,3.40
2018-06-20T00:56:08.351Z,3.10
2018-06-20T00:58:36.695Z,2.70
2018-06-20T01:01:05.168Z,3.33
2018-06-20T01:03:33.519Z,3.40
2018-06-20T01:06:01.886Z,3.27
2018-06-20T01:08:30.324Z,3.30
2018-06-20T01:10:58.718Z,3.23
2018-06-20T01:13:27.185Z,3.37
2018-06-20T01:15:55.564Z,3.90
2018-06-20T01:18:23.992Z,2.93
2018-06-20T01:20:52.457Z,3.13
2018-06-20T01:23:20.986Z,2.97
2018-06-20T01:25:50.054Z,3.03
2018-06-20T01:28:20.096Z,3.17
2018-06-20T01:30:49.237Z,3.40
2018-06-20T01:33:17.651Z,3.10
2018-06-20T01:35:46.065Z,3.23
2018-06-20T01:38:14.732Z,3.30
2018-06-20T01:40:43.104Z,2.93
2018-06-20T01:43:11.486Z,3.50
2018-06-20T01:45:39.921Z,2.93
2018-06-20T01:48:08.999Z,3.30
2018-06-20T01:50:37.417Z,3.40
2018-06-20T01:53:05.772Z,3.33
2018-06-20T01:55:34.272Z,3.30
2018-06-20T01:58:02.655Z,3.27
2018-06-20T02:00:30.688Z,3.17
2018-06-20T02:02:59.035Z,3.30
2018-06-20T02:05:27.365Z,3.70
2018-06-20T02:07:55.780Z,3.00
2018-06-20T02:10:24.403Z,3.33
2018-06-20T02:12:52.848Z,3.07
2018-06-20T02:15:21.255Z,3.30
2018-06-20T02:17:50.626Z,3.03
2018-06-20T02:20:19.016Z,3.23
2018-06-20T02:22:47.409Z,3.10
2018-06-20T02:25:16.056Z,3.30
2018-06-20T02:27:44.450Z,3.40
2018-06-20T02:30:12.858Z,3.30
2018-06-20T02:32:41.245Z,3.60
2018-06-20T02:35:09.601Z,3.97
2018-06-20T02:37:37.949Z,3.33
2018-06-20T02:40:06.441Z,3.40
2018-06-20T02:42:34.852Z,3.30
2018-06-20T02:45:03.243Z,3.77
2018-06-20T02:47:36.833Z,3.90
2018-06-20T02:50:05.203Z,4.03
2018-06-20T02:52:33.562Z,3.90
2018-06-20T02:55:01.987Z,4.13
2018-06-20T02:57:30.348Z,3.87
2018-06-20T02:59:58.687Z,4.67
2018-06-20T03:02:27.104Z,3.80
2018-06-20T03:04:55.505Z,4.30
2018-06-20T03:07:23.595Z,3.87
2018-06-20T03:09:51.968Z,4.20
2018-06-20T03:12:20.362Z,4.10
2018-06-20T03:14:48.737Z,4.23
2018-06-20T03:17:17.093Z,3.60
2018-06-20T03:19:45.524Z,4.17
2018-06-20T03:22:13.900Z,4.10
2018-06-20T03:24:42.384Z,4.70
2018-06-20T03:27:20.634Z,4.63
2018-06-20T03:29:48.969Z,5.00
2018-06-20T03:32:17.284Z,4.23
2018-06-20T03:34:45.961Z,5.60
2018-06-20T03:37:14.305Z,4.43
2018-06-20T03:39:42.636Z,4.67
2018-06-20T03:42:11.020Z,4.87
2018-06-20T03:44:39.382Z,4.97
2018-06-20T03:47:07.758Z,5.73
2018-06-20T03:49:36.140Z,5.57
2018-06-20T03:52:04.514Z,5.73
2018-06-20T03:54:32.940Z,5.90
2018-06-20T03:57:01.332Z,5.73
2018-06-20T03:59:29.704Z,6.97
2018-06-20T04:01:58.097Z,7.53
2018-06-20T04:04:26.593Z,6.73
2018-06-20T04:06:54.968Z,7.60
2018-06-20T04:09:23.366Z,7.30
2018-06-20T04:11:51.878Z,7.87
2018-06-20T04:14:20.321Z,7.63
2018-06-20T04:16:48.753Z,8.27
2018-06-20T04:19:17.193Z,8.00
2018-06-20T04:21:45.688Z,8.73
2018-06-20T04:24:14.144Z,10.33
2018-06-20T04:26:42.546Z,10.67
2018-06-20T04:29:11.028Z,9.03
2018-06-20T04:31:39.587Z,8.97
2018-06-20T04:34:08.000Z,8.40
2018-06-20T04:36:36.468Z,9.60
2018-06-20T04:39:07.569Z,9.93
2018-06-20T04:41:36.212Z,11.33
2018-06-20T04:44:04.636Z,9.80
2018-06-20T04:46:33.086Z,10.30
2018-06-20T04:49:01.527Z,10.20
2018-06-20T04:51:30.106Z,10.20
2018-06-20T04:53:58.512Z,11.10
2018-06-20T04:56:26.999Z,9.03
2018-06-20T04:58:55.544Z,10.47
2018-06-20T05:01:24.069Z,11.00
2018-06-20T05:03:52.494Z,10.90
2018-06-20T05:06:20.957Z,10.83
2018-06-20T05:08:49.115Z,10.23
2018-06-20T05:11:17.532Z,10.93
2018-06-20T05:13:46.328Z,11.30
2018-06-20T05:16:14.853Z,10.57
2018-06-20T05:18:43.224Z,11.30
2018-06-20T05:21:11.271Z,12.07
2018-06-20T05:23:39.720Z,11.30
2018-06-20T05:26:11.432Z,12.03
2018-06-20T05:28:39.865Z,11.43
2018-06-20T05:31:08.333Z,11.43
2018-06-20T05:33:36.798Z,11.83
2018-06-20T05:36:05.189Z,10.97
2018-06-20T05:38:33.664Z,10.77
2018-06-20T05:41:02.083Z,12.53
2018-06-20T05:43:30.598Z,11.80
2018-06-20T05:45:59.175Z,12.10
2018-06-20T05:48:27.653Z,13.17
2018-06-20T05:50:56.123Z,12.33
2018-06-20T05:53:24.541Z,13.13
2018-06-20T05:55:52.974Z,12.67
2018-06-20T05:58:21.392Z,13.23
2018-06-20T06:00:49.840Z,12.97
2018-06-20T06:03:18.236Z,11.23
2018-06-20T06:05:57.880Z,11.77
2018-06-20T06:08:26.434Z,12.57
2018-06-20T06:10:54.953Z,13.23
2018-06-20T06:13:23.476Z,12.67
2018-06-20T06:15:51.892Z,13.60
2018-06-20T06:18:20.310Z,12.33
2018-06-20T06:20:48.697Z,14.10
2018-06-20T06:23:16.909Z,11.57
2018-06-20T06:25:45.290Z,12.33
2018-06-20T06:28:13.696Z,13.50
2018-06-20T06:30:42.178Z,15.00
2018-06-20T06:33:10.612Z,14.97
2018-06-20T06:35:39.011Z,15.00
2018-06-20T06:38:07.485Z,16.48
2018-06-20T06:40:36.008Z,14.97
2018-06-20T06:43:04.477Z,15.93
2018-06-20T06:45:32.870Z,14.80
2018-06-20T06:48:01.337Z,14.37
2018-06-20T06:50:29.798Z,13.60
2018-06-20T06:52:58.181Z,13.60
2018-06-20T06:55:26.640Z,16.07
2018-06-20T06:57:54.705Z,15.33
2018-06-20T07:00:23.156Z,19.37
2018-06-20T07:02:51.617Z,14.37
2018-06-20T07:05:20.076Z,12.33
2018-06-20T07:07:48.578Z,12.53
2018-06-20T07:10:17.022Z,14.00
2018-06-20T07:12:45.523Z,16.20
2018-06-20T07:15:13.984Z,13.93
2018-06-20T07:17:42.429Z,13.40
2018-06-20T07:20:10.868Z,17.90
2018-06-20T07:22:39.251Z,16.03
2018-06-20T07:25:07.780Z,16.00
2018-06-20T07:27:36.192Z,13.47
2018-06-20T07:30:04.671Z,14.80
2018-06-20T07:32:33.093Z,13.67
2018-06-20T07:35:02.616Z,14.10
2018-06-20T07:37:31.188Z,13.63
2018-06-20T07:39:59.536Z,12.70
2018-06-20T07:42:27.932Z,12.43
2018-06-20T07:44:56.454Z,13.53
2018-06-20T07:47:24.848Z,12.77
2018-06-20T07:49:53.405Z,12.03
2018-06-20T07:52:22.891Z,11.10
2018-06-20T07:54:51.342Z,11.93
2018-06-20T07:57:19.889Z,10.87
2018-06-20T07:59:53.597Z,11.77
2018-06-20T08:02:33.760Z,9.10
2018-06-20T08:05:07.486Z,10.10
2018-06-20T08:07:41.088Z,7.83
2018-06-20T08:10:14.899Z,8.83
2018-06-20T08:12:48.593Z,7.70
2018-06-20T08:15:22.171Z,9.03
2018-06-20T08:17:56.052Z,8.87
2018-06-20T08:20:25.460Z,7.97
2018-06-20T08:22:53.991Z,7.93
2018-06-20T08:25:22.349Z,7.93
2018-06-20T08:27:50.897Z,7.93
2018-06-20T08:30:19.492Z,8.53
2018-06-20T08:32:48.076Z,8.73
2018-06-20T08:35:16.533Z,7.23
2018-06-20T08:37:44.985Z,8.33
2018-06-20T08:40:13.741Z,8.43
2018-06-20T08:42:42.167Z,7.30
2018-06-20T08:45:10.727Z,7.63
2018-06-20T08:47:39.084Z,10.00
2018-06-20T08:50:07.426Z,9.43
2018-06-20T08:52:35.813Z,9.30
2018-06-20T08:55:03.939Z,8.47
2018-06-20T08:57:32.301Z,8.00
2018-06-20T09:00:00.839Z,8.10
2018-06-20T09:02:29.550Z,8.53
2018-06-20T09:05:03.489Z,7.33
2018-06-20T09:07:37.228Z,7.63
2018-06-20T09:10:11.040Z,7.07
2018-06-20T09:12:44.949Z,7.80
2018-06-20T09:15:18.837Z,6.20
2018-06-20T09:17:52.758Z,6.20
2018-06-20T09:20:21.078Z,6.37
2018-06-20T09:22:49.540Z,6.60
2018-06-20T09:25:17.928Z,6.70
2018-06-20T09:27:46.316Z,6.50
2018-06-20T09:30:14.741Z,6.93
2018-06-20T09:32:43.152Z,5.90
2018-06-20T09:35:11.680Z,5.83
2018-06-20T09:37:40.105Z,5.67
2018-06-20T09:40:08.505Z,5.37
2018-06-20T09:42:37.017Z,5.77
2018-06-20T09:45:05.449Z,5.90
2018-06-20T09:47:33.861Z,5.17
2018-06-20T09:50:07.636Z,4.77
2018-06-20T09:52:35.772Z,5.37
2018-06-20T09:55:04.124Z,5.20
2018-06-20T09:57:32.488Z,5.27
2018-06-20T10:00:06.202Z,5.37
2018-06-20T10:02:39.997Z,5.77
2018-06-20T10:05:13.626Z,5.97
2018-06-20T10:07:47.413Z,5.83
2018-06-20T10:10:21.260Z,5.17
2018-06-20T10:12:54.799Z,5.90
2018-06-20T10:15:23.246Z,5.63
2018-06-20T10:17:51.698Z,5.60
2018-06-20T10:20:25.386Z,5.57
2018-06-20T10:22:53.757Z,4.60
2018-06-20T10:25:22.180Z,5.50
2018-06-20T10:27:52.325Z,5.47
2018-06-20T10:30:20.752Z,6.77
2018-06-20T10:32:49.297Z,5.57
2018-06-20T10:35:17.661Z,6.37
2018-06-20T10:37:46.114Z,5.60
2018-06-20T10:40:14.498Z,4.60
2018-06-20T10:42:42.889Z,5.20
2018-06-20T10:45:16.457Z,5.00
2018-06-20T10:47:46.361Z,5.17
2018-06-20T10:50:14.889Z,5.07
2018-06-20T10:52:43.293Z,5.23
2018-06-20T10:55:14.333Z,4.80
2018-06-20T10:57:48.184Z,4.60
2018-06-20T11:00:21.987Z,3.60
2018-06-20T11:02:55.864Z,4.17
2018-06-20T11:05:29.559Z,3.80
2018-06-20T11:08:03.563Z,4.30
2018-06-20T11:10:37.528Z,3.73
2018-06-20T11:13:07.601Z,4.20
2018-06-20T11:15:36.346Z,3.87
2018-06-20T11:18:04.891Z,4.23
2018-06-20T11:21:04.976Z,4.30
2018-06-20T11:23:33.335Z,4.30
2018-06-20T11:26:01.728Z,3.80
2018-06-20T11:28:30.100Z,3.83
2018-06-20T11:31:01.415Z,3.50
2018-06-20T11:33:29.835Z,3.70
2018-06-20T11:35:58.283Z,3.50
2018-06-20T11:38:26.835Z,4.30
2018-06-20T11:40:56.204Z,3.47
2018-06-20T11:43:24.636Z,3.47
2018-06-20T11:45:58.372Z,3.20
2018-06-20T11:48:26.842Z,4.00
2018-06-20T11:50:55.289Z,3.70
2018-06-20T11:53:24.059Z,4.50
2018-06-20T11:55:52.602Z,3.10
2018-06-20T11:58:26.310Z,3.57
2018-06-20T12:01:00.172Z,3.77
2018-06-20T12:03:34.044Z,3.50
2018-06-20T12:06:07.886Z,3.73
2018-06-20T12:08:41.556Z,3.43
2018-06-20T12:11:15.358Z,4.60
2018-06-20T12:14:49.419Z,4.40
2018-06-20T12:17:23.162Z,4.23
2018-06-20T12:19:57.033Z,4.47
2018-06-20T12:22:30.737Z,4.60
2018-06-20T12:25:04.475Z,4.33
2018-06-20T12:27:38.412Z,4.53
2018-06-20T12:30:12.176Z,4.90
2018-06-20T12:32:46.047Z,4.23
2018-06-20T12:35:20.028Z,3.90
2018-06-20T12:37:53.708Z,4.50
2018-06-20T12:40:27.173Z,4.90
2018-06-20T12:43:00.856Z,4.17
2018-06-20T12:45:29.800Z,5.30
2018-06-20T12:47:59.432Z,5.50
2018-06-20T12:50:28.736Z,4.37
2018-06-20T12:52:57.684Z,5.10
2018-06-20T12:55:26.593Z,4.53
2018-06-20T12:57:55.984Z,4.47
2018-06-20T13:00:24.422Z,4.50
2018-06-20T13:02:52.954Z,4.10
2018-06-20T13:05:21.775Z,5.00
2018-06-20T13:07:50.494Z,4.65
2018-06-20T13:10:19.173Z,4.00
2018-06-20T13:12:47.597Z,3.80
2018-06-20T13:15:16.278Z,4.47
2018-06-20T13:17:44.978Z,4.17
2018-06-20T13:20:16.174Z,4.10
2018-06-20T13:22:44.697Z,3.97
2018-06-20T13:25:13.279Z,4.47
2018-06-20T13:27:46.623Z,3.90
2018-06-20T13:30:15.563Z,3.30
2018-06-20T13:32:51.830Z,3.50
2018-06-20T13:35:25.622Z,3.13
2018-06-20T13:38:00.438Z,3.30
2018-06-20T13:40:34.233Z,3.33
2018-06-20T13:43:08.237Z,3.53
2018-06-20T13:45:44.321Z,3.47
2018-06-20T13:48:18.209Z,2.90
2018-06-20T13:50:46.645Z,3.10
2018-06-20T13:53:15.215Z,3.40
2018-06-20T13:55:43.914Z,3.10
2018-06-20T13:58:13.753Z,2.73
2018-06-20T14:00:43.286Z,3.03
2018-06-20T14:03:11.389Z,3.60
2018-06-20T14:05:40.016Z,3.17
2018-06-20T14:08:12.996Z,3.13
2018-06-20T14:10:43.521Z,3.40
2018-06-20T14:13:14.336Z,3.23
2018-06-20T14:15:42.764Z,3.30
2018-06-20T14:18:11.388Z,3.50
2018-06-20T14:20:45.290Z,3.20
2018-06-20T14:23:13.858Z,3.20
2018-06-20T14:25:42.219Z,3.37
2018-06-20T14:28:10.747Z,3.57
2018-06-20T14:30:44.643Z,2.80
2018-06-20T14:33:18.848Z,3.80
2018-06-20T14:35:52.745Z,3.37
2018-06-20T14:38:26.933Z,3.70
2018-06-20T14:41:00.881Z,3.70
2018-06-20T14:43:34.613Z,3.53
2018-06-20T14:46:08.486Z,3.40
2018-06-20T14:48:37.084Z,3.63
2018-06-20T14:51:07.530Z,3.40
2018-06-20T14:53:35.930Z,2.73
2018-06-20T14:56:06.940Z,3.50
2018-06-20T14:58:35.437Z,3.70
2018-06-20T15:01:05.817Z,3.70
2018-06-20T15:03:34.465Z,3.53
2018-06-20T15:06:03.442Z,3.20
2018-06-20T15:08:32.975Z,3.50
2018-06-20T15:11:02.936Z,4.03
2018-06-20T15:13:34.017Z,3.50
2018-06-20T15:16:09.239Z,3.57
2018-06-20T15:18:40.640Z,3.53
2018-06-20T15:21:09.199Z,3.40
2018-06-20T15:23:37.675Z,3.30
2018-06-20T15:26:11.625Z,4.00
2018-06-20T15:28:45.492Z,3.10
2018-06-20T15:31:19.437Z,3.43
2018-06-20T15:33:55.341Z,3.20
2018-06-20T15:36:29.898Z,4.03
2018-06-20T15:39:00.230Z,4.17
2018-06-20T15:41:29.584Z,3.43
2018-06-20T15:43:58.565Z,4.00
2018-06-20T15:49:44.532Z,4.00
2018-06-20T15:52:17.894Z,3.87
2018-06-20T15:55:00.878Z,3.60
2018-06-20T15:57:32.020Z,4.90
2018-06-20T16:00:08.870Z,4.50
2018-06-20T16:02:42.779Z,4.00
2018-06-20T16:05:14.911Z,4.20
2018-06-20T16:07:45.149Z,4.33
2018-06-20T16:10:23.790Z,4.30
2018-06-20T16:12:56.126Z,4.73
2018-06-20T16:15:25.621Z,4.03
2018-06-20T16:17:54.672Z,3.47
2018-06-20T16:20:29.299Z,2.83
2018-06-20T16:23:06.263Z,3.80
2018-06-20T16:25:42.020Z,3.03
2018-06-20T16:28:16.577Z,3.60
2018-06-20T16:30:52.708Z,3.57
2018-06-20T16:33:27.772Z,2.63
2018-06-20T16:35:58.603Z,3.20
2018-06-20T16:38:29.885Z,2.53
2018-06-20T16:41:01.620Z,3.10
2018-06-20T16:46:09.254Z,3.00
2018-06-20T16:48:46.717Z,3.07
2018-06-20T16:51:16.890Z,3.30
2018-06-20T16:53:45.917Z,3.53
2018-06-20T16:56:16.801Z,4.27
2018-06-20T16:58:46.943Z,3.70
2018-06-20T17:03:58.641Z,4.27
2018-06-20T17:06:29.250Z,4.43
2018-06-20T17:09:15.304Z,5.47
2018-06-20T17:11:48.978Z,5.40
2018-06-20T17:14:25.955Z,4.90
2018-06-20T17:17:00.019Z,6.50
2018-06-20T17:19:34.997Z,4.63
2018-06-20T17:22:16.281Z,4.70
2018-06-20T17:24:49.998Z,6.37
2018-06-20T17:27:18.638Z,6.55
2018-06-20T17:29:47.065Z,6.33
2018-06-20T17:32:15.628Z,6.70
2018-06-20T17:34:44.176Z,5.97
2018-06-20T17:37:12.959Z,6.83
2018-06-20T17:39:41.452Z,6.50
2018-06-20T17:44:52.936Z,5.03
2018-06-20T17:47:21.503Z,6.15
2018-06-20T17:49:50.160Z,5.20
2018-06-20T17:52:18.878Z,5.20
2018-06-20T17:54:47.574Z,5.73
2018-06-20T17:57:16.168Z,4.47
2018-06-20T17:59:44.678Z,5.47
2018-06-20T18:02:13.310Z,5.13
2018-06-20T18:04:47.150Z,4.30
2018-06-20T18:07:20.961Z,4.40
2018-06-20T18:09:54.769Z,4.60
2018-06-20T18:12:28.780Z,5.37
2018-06-20T18:15:02.589Z,5.70
2018-06-20T18:20:13.764Z,4.60
2018-06-20T18:22:42.106Z,5.27
2018-06-20T18:25:10.586Z,5.87
2018-06-20T18:27:39.917Z,6.50
2018-06-20T18:30:08.550Z,6.10
2018-06-20T18:32:36.984Z,6.23
2018-06-20T18:35:05.548Z,6.37
2018-06-20T18:37:34.098Z,6.20
2018-06-20T18:40:07.785Z,6.37
2018-06-20T18:42:36.565Z,6.53
2018-06-20T18:45:10.858Z,6.13
2018-06-20T18:47:44.685Z,6.67
2018-06-20T18:50:14.546Z,5.87
2018-06-20T18:52:42.970Z,5.63
2018-06-20T18:55:12.027Z,5.83
2018-06-20T18:57:45.726Z,5.90
2018-06-20T19:00:19.527Z,5.73
2018-06-20T19:02:54.846Z,5.13
2018-06-20T19:05:28.554Z,4.97
2018-06-20T19:08:02.390Z,5.67
2018-06-20T19:10:36.775Z,5.83
2018-06-20T19:13:05.966Z,5.57
2018-06-20T19:15:42.013Z,5.70
2018-06-20T19:18:11.786Z,5.90
2018-06-20T19:20:40.193Z,5.83
2018-06-20T19:23:08.777Z,5.20
2018-06-20T19:25:37.406Z,5.03
2018-06-20T19:28:06.412Z,5.33
2018-06-20T19:30:35.089Z,5.50
2018-06-20T19:33:03.731Z,6.37
2018-06-20T19:35:32.383Z,5.23
2018-06-20T19:38:01.114Z,5.33
2018-06-20T19:40:30.983Z,5.03
2018-06-20T19:43:00.529Z,6.37
2018-06-20T19:45:29.075Z,5.27
2018-06-20T19:47:57.910Z,5.97
2018-06-20T19:50:26.637Z,5.60
2018-06-20T19:52:55.045Z,5.67
2018-06-20T19:55:24.053Z,5.33
2018-06-20T19:57:52.589Z,6.78
2018-06-20T20:00:21.330Z,5.37
2018-06-20T20:02:49.880Z,6.20
2018-06-20T20:05:18.273Z,5.58
2018-06-20T20:07:46.704Z,4.77
2018-06-20T20:10:15.141Z,5.20
2018-06-20T20:12:43.980Z,5.17
2018-06-20T20:15:15.007Z,5.57
2018-06-20T20:17:43.410Z,5.00
2018-06-20T20:20:12.004Z,5.20
2018-06-20T20:22:43.345Z,5.30
2018-06-20T20:25:11.864Z,4.80
2018-06-20T20:27:40.312Z,5.20
2018-06-20T20:30:08.765Z,6.00
2018-06-20T20:32:37.227Z,6.10
2018-06-20T20:35:05.629Z,5.80
2018-06-20T20:37:34.896Z,5.90
2018-06-20T20:40:03.306Z,5.40
2018-06-20T20:42:31.760Z,5.97
2018-06-20T20:44:59.841Z,6.30
2018-06-20T20:47:28.313Z,6.80
2018-06-20T20:49:57.017Z,5.73
2018-06-20T20:52:25.500Z,5.80
2018-06-20T20:54:54.024Z,5.67
2018-06-20T20:57:22.622Z,5.83
2018-06-20T20:59:51.154Z,5.63
2018-06-20T21:02:19.777Z,5.60
2018-06-20T21:04:48.339Z,6.73
2018-06-20T21:07:17.046Z,6.10
2018-06-20T21:09:51.458Z,6.40
2018-06-20T21:12:20.370Z,6.30
2018-06-20T21:14:48.925Z,5.80
2018-06-20T21:17:17.608Z,6.30
2018-06-20T21:19:46.108Z,5.67
2018-06-20T21:22:14.698Z,6.17
2018-06-20T21:24:43.138Z,6.27
2018-06-20T21:27:11.613Z,5.67
2018-06-20T21:29:40.106Z,6.13
2018-06-20T21:32:08.596Z,5.67
2018-06-20T21:34:37.056Z,5.73
2018-06-20T21:37:05.535Z,5.73
2018-06-20T21:39:33.892Z,6.20
2018-06-20T21:42:02.268Z,5.30
2018-06-20T21:44:30.863Z,5.57
2018-06-20T21:46:59.236Z,5.37
2018-06-20T21:49:27.662Z,4.77
2018-06-20T21:51:55.766Z,5.80
2018-06-20T21:54:24.122Z,5.17
2018-06-20T21:56:52.946Z,4.77
2018-06-20T21:59:21.420Z,5.10
2018-06-20T22:01:49.926Z,5.80
2018-06-20T22:04:18.507Z,5.20
2018-06-20T22:06:47.364Z,4.50
2018-06-20T22:09:15.892Z,4.43
2018-06-20T22:11:44.360Z,5.07
2018-06-20T22:14:12.793Z,4.60
2018-06-20T22:16:41.260Z,4.47
2018-06-20T22:19:09.620Z,4.00
2018-06-20T22:21:38.052Z,4.53
2018-06-20T22:24:06.550Z,5.00
2018-06-20T22:26:34.972Z,4.70
2018-06-20T22:29:03.345Z,4.03
2018-06-20T22:31:31.708Z,4.23
2018-06-20T22:34:00.144Z,5.40
2018-06-20T22:36:28.567Z,4.50
2018-06-20T22:38:57.024Z,4.90
2018-06-20T22:41:25.551Z,4.27
2018-06-20T22:43:53.895Z,4.43
2018-06-20T22:46:22.454Z,4.50
2018-06-20T22:48:50.928Z,4.60
2018-06-20T22:51:19.387Z,4.57
2018-06-20T22:53:47.917Z,4.83
2018-06-20T22:56:16.542Z,4.90
2018-06-20T22:58:45.040Z,4.47
2018-06-20T23:01:13.473Z,4.13
2018-06-20T23:03:41.909Z,4.43
2018-06-20T23:06:10.365Z,4.43
2018-06-20T23:08:38.510Z,4.10
2018-06-20T23:11:06.857Z,3.97
2018-06-20T23:13:35.235Z,4.23
2018-06-20T23:16:03.453Z,4.67
2018-06-20T23:18:31.874Z,4.77
2018-06-20T23:21:00.255Z,4.50
2018-06-20T23:23:28.622Z,4.37
2018-06-20T23:25:57.046Z,3.77
2018-06-20T23:28:25.420Z,4.30
2018-06-20T23:30:53.856Z,4.73
2018-06-20T23:33:22.286Z,4.37
2018-06-20T23:35:50.768Z,4.17
2018-06-20T23:38:19.285Z,4.67
2018-06-20T23:40:47.832Z,4.80
2018-06-20T23:43:16.411Z,4.90
2018-06-20T23:45:44.905Z,4.30
2018-06-20T23:48:13.326Z,3.97
2018-06-20T23:50:41.763Z,4.43
2018-06-20T23:53:10.242Z,5.07
2018-06-20T23:55:38.577Z,4.20
2018-06-20T23:58:07.115Z,4.67
